createdAt,value
2019-04-07T00:01:34.552Z,14.60
2019-04-07T00:07:39.270Z,14.70
2019-04-07T00:13:43.871Z,14.50
2019-04-07T00:19:48.786Z,15.23
2019-04-07T00:25:53.519Z,14.20
2019-04-07T00:31:58.100Z,13.03
2019-04-07T00:38:02.731Z,15.50
2019-04-07T00:44:07.351Z,14.50
2019-04-07T00:50:12.945Z,15.87
2019-04-07T00:56:18.287Z,16.13
2019-04-07T01:02:23.245Z,15.57
2019-04-07T01:08:28.168Z,16.93
2019-04-07T01:14:33.592Z,17.40
2019-04-07T01:20:38.266Z,15.90
2019-04-07T01:26:42.829Z,16.07
2019-04-07T01:32:47.561Z,15.77
2019-04-07T01:38:52.181Z,15.83
2019-04-07T01:45:10.533Z,16.03
2019-04-07T01:51:21.124Z,15.13
2019-04-07T01:57:25.701Z,15.97
2019-04-07T02:03:35.697Z,16.30
2019-04-07T02:09:41.964Z,14.70
2019-04-07T02:15:48.235Z,14.90
2019-04-07T02:21:54.635Z,16.97
2019-04-07T02:28:12.720Z,15.80
2019-04-07T02:34:30.872Z,18.00
2019-04-07T02:40:37.315Z,16.30
2019-04-07T02:46:49.619Z,17.20
2019-04-07T02:52:54.664Z,16.30
2019-04-07T02:59:10.170Z,16.57
2019-04-07T03:05:31.693Z,16.20
2019-04-07T03:11:44.610Z,17.40
2019-04-07T03:18:03.036Z,18.20
2019-04-07T03:24:28.499Z,17.43
2019-04-07T03:30:37.558Z,16.37
2019-04-07T03:37:13.840Z,16.40
2019-04-07T03:42:55.291Z,17.10
2019-04-07T03:48:59.952Z,15.70
2019-04-07T03:55:08.720Z,16.30
2019-04-07T04:01:19.382Z,16.80
2019-04-07T04:07:32.343Z,15.53
2019-04-07T04:13:39.040Z,17.00
2019-04-07T04:19:44.035Z,16.93
2019-04-07T04:25:49.105Z,17.97
2019-04-07T04:31:54.541Z,15.63
2019-04-07T04:37:59.771Z,17.80
2019-04-07T04:44:05.160Z,17.50
2019-04-07T04:50:10.947Z,18.10
2019-04-07T04:56:15.547Z,18.00
2019-04-07T05:02:20.092Z,17.87
2019-04-07T05:08:24.754Z,18.60
2019-04-07T05:14:29.276Z,18.60
2019-04-07T05:20:34.443Z,18.60
2019-04-07T05:26:39.048Z,20.60
2019-04-07T05:32:44.367Z,19.17
2019-04-07T05:38:48.904Z,18.17
2019-04-07T05:44:53.632Z,19.77
2019-04-07T05:50:59.931Z,19.13
2019-04-07T05:57:05.366Z,20.83
2019-04-07T06:03:10.076Z,23.10
2019-04-07T06:09:15.880Z,20.40
2019-04-07T06:15:22.176Z,21.00
2019-04-07T06:21:27.795Z,21.30
2019-04-07T06:27:32.607Z,21.97
2019-04-07T06:33:38.211Z,22.50
2019-04-07T06:39:44.073Z,20.33
2019-04-07T06:46:07.058Z,20.20
2019-04-07T06:52:17.321Z,26.03
2019-04-07T06:58:24.276Z,17.47
2019-04-07T07:04:33.283Z,21.37
2019-04-07T07:10:56.312Z,18.97
2019-04-07T07:17:19.709Z,20.50
2019-04-07T07:23:29.537Z,21.67
2019-04-07T07:29:34.096Z,18.03
2019-04-07T07:35:38.864Z,19.90
2019-04-07T07:41:43.686Z,19.50
2019-04-07T07:47:51.205Z,19.30
2019-04-07T07:53:56.604Z,21.27
2019-04-07T08:00:05.115Z,19.47
2019-04-07T08:06:08.389Z,21.57
2019-04-07T08:12:13.112Z,18.90
2019-04-07T08:18:19.847Z,23.53
2019-04-07T08:24:24.058Z,20.43
2019-04-07T08:30:28.896Z,20.50
2019-04-07T08:36:33.848Z,18.70
2019-04-07T08:42:39.185Z,18.20
2019-04-07T08:48:44.364Z,17.90
2019-04-07T08:54:52.182Z,16.77
2019-04-07T09:00:57.366Z,15.73
2019-04-07T09:07:03.843Z,14.60
2019-04-07T09:13:10.146Z,15.10
2019-04-07T09:19:18.172Z,15.10
2019-04-07T09:25:24.532Z,13.50
2019-04-07T09:31:36.445Z,13.70
2019-04-07T09:37:48.309Z,12.80
2019-04-07T09:44:01.133Z,12.80
2019-04-07T09:50:06.744Z,15.10
2019-04-07T09:56:16.236Z,14.60
2019-04-07T10:02:35.693Z,15.20
2019-04-07T10:08:47.906Z,15.63
2019-04-07T10:15:11.792Z,15.53
2019-04-07T10:21:35.045Z,14.47
2019-04-07T10:27:59.423Z,13.47
2019-04-07T10:34:06.247Z,15.00
2019-04-07T10:40:35.402Z,15.90
2019-04-07T10:46:44.938Z,14.50
2019-04-07T10:52:58.062Z,15.77
2019-04-07T10:59:07.508Z,15.27
2019-04-07T11:05:30.407Z,13.87
2019-04-07T11:11:44.711Z,15.30
2019-04-07T11:18:06.659Z,16.10
2019-04-07T11:24:15.520Z,14.57
2019-04-07T11:30:27.235Z,16.53
2019-04-07T11:36:43.235Z,16.90
2019-04-07T11:43:03.350Z,14.50
2019-04-07T11:49:26.676Z,16.53
2019-04-07T11:55:48.757Z,14.37
2019-04-07T12:01:53.245Z,15.67
2019-04-07T12:08:06.085Z,15.93
2019-04-07T12:14:17.035Z,14.60
2019-04-07T12:20:33.835Z,15.77
2019-04-07T12:26:56.700Z,16.07
2019-04-07T12:33:01.187Z,16.30
2019-04-07T12:39:16.318Z,17.57
2019-04-07T12:45:38.553Z,17.00
2019-04-07T12:51:44.867Z,17.80
2019-04-07T12:57:59.980Z,17.87
2019-04-07T13:04:10.059Z,18.10
2019-04-07T13:10:16.838Z,17.00
2019-04-07T13:16:26.000Z,17.40
2019-04-07T13:22:43.896Z,17.40
2019-04-07T13:29:00.691Z,16.80
2019-04-07T13:35:24.317Z,16.13
2019-04-07T13:41:38.708Z,15.03
2019-04-07T13:47:55.766Z,15.03
2019-04-07T13:54:05.463Z,14.00
2019-04-07T14:00:24.202Z,8.70
2019-04-07T14:06:29.451Z,9.37
2019-04-07T14:12:34.601Z,11.80
2019-04-07T14:18:44.494Z,9.33
2019-04-07T14:24:56.715Z,9.37
2019-04-07T14:31:28.219Z,9.87
2019-04-07T14:37:35.982Z,9.90
2019-04-07T14:43:43.127Z,10.50
2019-04-07T14:49:56.137Z,9.97
2019-04-07T14:56:05.883Z,11.10
2019-04-07T15:02:10.396Z,11.50
2019-04-07T15:08:23.629Z,9.70
2019-04-07T15:14:31.427Z,11.63
2019-04-07T15:20:34.763Z,11.20
2019-04-07T15:26:40.083Z,11.70
2019-04-07T15:32:44.728Z,11.43
2019-04-07T15:38:49.743Z,12.27
2019-04-07T15:44:54.587Z,12.70
2019-04-07T15:51:02.485Z,11.90
2019-04-07T15:57:05.744Z,12.40
2019-04-07T16:03:12.735Z,14.87
2019-04-07T16:09:30.689Z,17.13
2019-04-07T16:15:23.295Z,14.80
2019-04-07T16:21:29.729Z,14.67
2019-04-07T16:27:36.461Z,18.30
2019-04-07T16:33:40.991Z,18.20
2019-04-07T16:39:45.774Z,17.77
2019-04-07T16:45:50.666Z,20.27
2019-04-07T16:51:58.367Z,17.97
2019-04-07T16:58:02.916Z,18.50
2019-04-07T17:04:08.328Z,18.57
2019-04-07T17:10:13.400Z,17.50
2019-04-07T17:16:22.603Z,18.27
2019-04-07T17:22:25.132Z,19.40
2019-04-07T17:28:29.862Z,17.67
2019-04-07T17:34:35.388Z,16.70
2019-04-07T17:40:51.818Z,18.03
2019-04-07T17:47:13.894Z,16.50
2019-04-07T17:53:20.086Z,16.87
2019-04-07T17:59:24.420Z,16.00
2019-04-07T18:05:29.275Z,15.67
2019-04-07T18:11:47.670Z,18.10
2019-04-07T18:18:10.346Z,17.23
2019-04-07T18:24:16.852Z,17.10
2019-04-07T18:30:25.948Z,17.30
2019-04-07T18:36:42.672Z,18.50
2019-04-07T18:42:51.418Z,15.93
2019-04-07T18:49:15.852Z,17.27
2019-04-07T18:55:39.338Z,16.53
2019-04-07T19:01:52.603Z,15.23
2019-04-07T19:08:17.462Z,17.03
2019-04-07T19:14:45.967Z,18.23
2019-04-07T19:21:02.996Z,19.00
2019-04-07T19:27:21.178Z,18.57
2019-04-07T19:33:24.479Z,17.80
2019-04-07T19:39:32.956Z,19.30
2019-04-07T19:45:39.286Z,17.50
2019-04-07T19:51:46.956Z,19.53
2019-04-07T19:57:54.819Z,18.90
2019-04-07T20:04:03.745Z,19.77
2019-04-07T20:10:16.417Z,21.27
2019-04-07T20:16:21.933Z,21.77
2019-04-07T20:22:41.402Z,21.53
2019-04-07T20:28:47.752Z,21.70
2019-04-07T20:34:59.038Z,20.90
2019-04-07T20:41:17.587Z,21.53
2019-04-07T20:47:40.395Z,22.07
2019-04-07T20:53:45.121Z,23.43
2019-04-07T20:59:55.166Z,21.07
2019-04-07T21:06:06.339Z,19.80
2019-04-07T21:12:30.192Z,20.97
2019-04-07T21:18:40.277Z,21.20
2019-04-07T21:25:02.548Z,22.90
2019-04-07T21:31:26.049Z,22.67
2019-04-07T21:37:35.848Z,22.27
2019-04-07T21:43:46.680Z,21.80
2019-04-07T21:50:07.559Z,22.27
2019-04-07T21:56:22.244Z,20.70
2019-04-07T22:02:31.496Z,21.80
2019-04-07T22:08:43.344Z,19.90
2019-04-07T22:14:47.567Z,19.00
2019-04-07T22:20:54.533Z,16.57
2019-04-07T22:26:59.336Z,19.73
2019-04-07T22:33:04.242Z,15.73
2019-04-07T22:39:09.004Z,16.90
2019-04-07T22:45:14.825Z,20.30
2019-04-07T22:51:19.666Z,21.93
2019-04-07T22:57:24.326Z,21.43
2019-04-07T23:03:29.293Z,21.40
2019-04-07T23:09:34.040Z,20.90
2019-04-07T23:15:44.338Z,19.37
2019-04-07T23:21:44.883Z,18.57
2019-04-07T23:27:50.015Z,19.47
2019-04-07T23:33:54.642Z,18.80
2019-04-07T23:40:00.170Z,18.50
2019-04-07T23:46:05.328Z,17.70
2019-04-07T23:52:09.890Z,17.37
2019-04-07T23:58:14.458Z,15.50
